Time;durP1;ratioP1;P1;durP2;ratioP2;P2;SDS_P1;SDS_P2;PMS_P1;PMS_P2;Temp;Humidity;BMP_temperature;BMP_pressure;BME280_temperature;BME280_humidity;BME280_pressure;Samples;Min_cycle;Max_cycle;Signal;HPM_P1;HPM_P2
2024/04/05 00:00:39;;;;;;;3.03;1.50;;;;;;;12.35;100.00;93000.47;2090188;28;20029;-83
2024/04/05 00:01:40;;;;;;;1.13;1.02;;;;;;;11.94;100.00;92997.88;2092238;28;20052;-82
2024/04/05 00:02:41;;;;;;;3.03;1.25;;;;;;;11.95;100.00;92996.72;2086095;28;20037;-81
2024/04/05 00:03:42;;;;;;;3.25;1.30;;;;;;;11.93;100.00;92993.69;2088002;28;20040;-82
2024/04/05 00:04:44;;;;;;;2.15;1.10;;;;;;;12.04;100.00;92997.59;2076118;28;20029;-82
2024/04/05 00:05:45;;;;;;;3.28;1.13;;;;;;;11.96;100.00;92990.94;2082209;28;20036;-82
2024/04/05 00:06:46;;;;;;;2.20;1.13;;;;;;;11.94;100.00;93001.31;2090196;28;20846;-83
2024/04/05 00:07:47;;;;;;;2.08;1.20;;;;;;;11.88;100.00;92996.91;2090304;28;20028;-82
2024/04/05 00:08:49;;;;;;;3.45;1.38;;;;;;;11.86;100.00;93007.31;2090318;28;20036;-82
2024/04/05 00:09:50;;;;;;;3.28;1.60;;;;;;;11.87;100.00;92998.09;2098264;28;20024;-82
2024/04/05 00:10:51;;;;;;;2.10;1.00;;;;;;;11.81;100.00;93005.88;2094861;28;20053;-82
2024/04/05 00:11:52;;;;;;;2.45;1.42;;;;;;;11.76;100.00;93003.72;2082101;28;20032;-83
2024/04/05 00:12:53;;;;;;;1.88;1.20;;;;;;;11.78;100.00;92999.44;2081908;28;20121;-82
2024/04/05 00:13:54;;;;;;;2.05;1.50;;;;;;;11.50;100.00;93001.00;2089950;28;20033;-83
2024/04/05 00:14:55;;;;;;;2.83;1.33;;;;;;;11.53;100.00;93000.13;2085953;28;20040;-82
2024/04/05 00:15:56;;;;;;;2.08;1.38;;;;;;;11.57;100.00;93005.38;2098393;28;20024;-82
2024/04/05 00:16:57;;;;;;;3.83;1.30;;;;;;;11.53;100.00;92992.09;2081912;28;20030;-82
2024/04/05 00:17:58;;;;;;;1.08;1.00;;;;;;;11.57;100.00;92995.44;2086361;28;20548;-82
2024/04/05 00:18:59;;;;;;;5.22;1.50;;;;;;;11.71;100.00;93002.31;2090196;28;20123;-83
2024/04/05 00:20:01;;;;;;;3.60;1.55;;;;;;;11.74;100.00;92998.78;2089111;28;20071;-82
2024/04/05 00:21:05;;;;;;;3.42;1.45;;;;;;;11.83;100.00;92992.84;2096011;28;20499;-82
2024/04/05 00:22:06;;;;;;;2.22;1.75;;;;;;;11.86;100.00;92996.59;2096046;28;20111;-82
2024/04/05 00:23:08;;;;;;;2.55;1.30;;;;;;;11.73;100.00;92991.94;2106667;28;20412;-82
2024/04/05 00:24:09;;;;;;;6.55;1.35;;;;;;;11.69;100.00;92993.22;2087516;28;20032;-83
2024/04/05 00:25:10;;;;;;;2.53;1.30;;;;;;;11.77;100.00;92983.81;2080391;28;20029;-82
2024/04/05 00:26:12;;;;;;;2.33;1.10;;;;;;;11.65;100.00;92987.94;2098313;28;20382;-82
2024/04/05 00:27:13;;;;;;;3.90;1.33;;;;;;;11.52;100.00;92985.25;2100296;28;20039;-82
2024/04/05 00:28:14;;;;;;;3.35;1.63;;;;;;;11.57;100.00;92984.72;2096345;28;20658;-83
2024/04/05 00:29:15;;;;;;;3.67;1.17;;;;;;;11.47;100.00;92985.03;2090022;28;20355;-81
2024/04/05 00:30:16;;;;;;;3.60;1.33;;;;;;;11.47;100.00;92988.44;2089797;28;20036;-82
2024/04/05 00:31:16;;;;;;;2.22;1.20;;;;;;;11.63;100.00;92987.63;2085630;28;20035;-82
2024/04/05 00:32:17;;;;;;;2.17;1.40;;;;;;;11.68;100.00;92981.00;2088863;28;20065;-81
2024/04/05 00:33:18;;;;;;;4.60;1.42;;;;;;;11.54;100.00;92990.16;2106366;28;20024;-82
2024/04/05 00:34:19;;;;;;;1.75;1.38;;;;;;;11.48;100.00;92991.88;2105329;28;20537;-82
2024/04/05 00:35:20;;;;;;;3.35;1.45;;;;;;;11.44;100.00;92989.28;2105768;28;20522;-83
2024/04/05 00:36:21;;;;;;;3.42;1.35;;;;;;;11.36;100.00;92996.00;2098205;28;20498;-82
2024/04/05 00:37:22;;;;;;;2.47;1.42;;;;;;;11.16;100.00;92982.03;2090080;28;20021;-82
2024/04/05 00:38:24;;;;;;;3.53;1.40;;;;;;;11.18;100.00;92987.69;2089862;28;20059;-82
2024/04/05 00:39:25;;;;;;;2.80;1.40;;;;;;;11.25;100.00;92990.19;2090188;28;20028;-81
2024/04/05 00:40:26;;;;;;;2.47;1.23;;;;;;;11.24;100.00;92988.69;2089981;28;20076;-82
2024/04/05 00:41:28;;;;;;;2.45;1.52;;;;;;;11.27;100.00;92985.16;2098131;28;20138;-81
2024/04/05 00:42:29;;;;;;;4.10;1.23;;;;;;;11.28;100.00;92990.09;2090272;28;20025;-81
2024/04/05 00:43:30;;;;;;;2.80;1.33;;;;;;;11.31;100.00;92985.81;2098163;28;20025;-81
2024/04/05 00:44:31;;;;;;;2.22;1.40;;;;;;;11.23;100.00;92987.16;2089654;28;20469;-82
2024/04/05 00:45:32;;;;;;;1.83;1.08;;;;;;;11.24;100.00;92996.72;2081470;28;20021;-81
2024/04/05 00:46:34;;;;;;;1.35;1.00;;;;;;;11.24;100.00;92999.41;2074441;28;20095;-82
2024/04/05 00:47:35;;;;;;;6.18;1.00;;;;;;;11.21;100.00;92986.84;2090362;28;20031;-83
2024/04/05 00:48:37;;;;;;;3.70;0.90;;;;;;;11.25;100.00;92987.53;2089826;28;20028;-83
2024/04/05 00:49:38;;;;;;;1.30;0.90;;;;;;;11.29;100.00;92994.28;2101160;28;20122;-83
2024/04/05 00:50:39;;;;;;;2.78;1.10;;;;;;;11.21;100.00;92990.28;2099882;28;20075;-83
2024/04/05 00:51:40;;;;;;;7.63;1.10;;;;;;;11.12;100.00;92989.38;2098129;28;20028;-82
2024/04/05 00:52:41;;;;;;;2.15;1.00;;;;;;;11.07;100.00;92988.72;2098077;28;20142;-82
2024/04/05 00:53:44;;;;;;;3.42;0.95;;;;;;;11.13;100.00;92991.63;2106384;28;20028;-82
2024/04/05 00:54:46;;;;;;;17.75;1.13;;;;;;;11.07;100.00;92994.06;2097865;28;20470;-82
2024/04/05 00:55:48;;;;;;;3.90;1.02;;;;;;;11.02;100.00;92985.81;2081906;28;20088;-82
2024/04/05 00:56:49;;;;;;;0.95;0.90;;;;;;;10.97;100.00;92989.72;2085795;28;20071;-81
2024/04/05 00:57:50;;;;;;;4.82;1.10;;;;;;;10.91;100.00;92988.75;2073643;28;20029;-82
2024/04/05 00:58:51;;;;;;;3.28;1.00;;;;;;;10.93;100.00;92988.31;2084910;28;20033;-82
2024/04/05 00:59:52;;;;;;;7.60;1.02;;;;;;;10.94;100.00;92987.91;2097930;28;20028;-83
2024/04/05 01:00:54;;;;;;;3.05;0.80;;;;;;;10.82;100.00;92989.34;2102048;28;20020;-82
2024/04/05 01:01:57;;;;;;;1.40;0.70;;;;;;;10.82;100.00;92985.94;2097925;28;20016;-82
2024/04/05 01:02:58;;;;;;;20.58;1.00;;;;;;;10.73;100.00;92985.78;2081633;28;20473;-82
2024/04/05 01:03:59;;;;;;;1.67;0.90;;;;;;;10.69;100.00;92985.09;2089515;28;20029;-82
2024/04/05 01:05:00;;;;;;;2.50;0.90;;;;;;;10.66;100.00;92984.00;2085395;28;20063;-82
2024/04/05 01:06:02;;;;;;;4.35;1.05;;;;;;;10.64;100.00;92978.34;2081390;28;20108;-82
2024/04/05 01:07:03;;;;;;;3.88;1.13;;;;;;;10.80;100.00;92988.28;2098465;28;20032;-83
2024/04/05 01:08:07;;;;;;;3.63;0.82;;;;;;;10.87;100.00;92974.72;2098064;28;20029;-82
2024/04/05 01:09:08;;;;;;;6.63;0.88;;;;;;;10.37;100.00;92986.63;2090073;28;20742;-82
2024/04/05 01:10:09;;;;;;;0.80;0.80;;;;;;;10.42;100.00;92980.03;2081487;28;20071;-83
2024/04/05 01:11:10;;;;;;;1.10;0.70;;;;;;;9.94;100.00;92984.13;2081269;28;20030;-82
2024/04/05 01:12:12;;;;;;;0.90;0.80;;;;;;;9.71;100.00;92985.72;2089740;28;20494;-82
2024/04/05 01:13:14;;;;;;;1.25;0.80;;;;;;;9.79;100.00;92981.75;2091494;28;20428;-83
2024/04/05 01:14:14;;;;;;;3.85;0.80;;;;;;;9.88;100.00;92983.06;2088044;28;20190;-82
2024/04/05 01:15:15;;;;;;;1.58;0.90;;;;;;;9.82;100.00;92985.50;2089854;28;20028;-82
2024/04/05 01:16:16;;;;;;;0.77;0.77;;;;;;;9.96;100.00;92984.44;2097947;28;20150;-82
2024/04/05 01:17:29;;;;;;;1.42;0.90;;;;;;;9.95;100.00;92991.69;2089791;28;20470;-82
2024/04/05 01:18:30;;;;;;;1.92;0.90;;;;;;;10.04;100.00;92989.22;2091224;28;20025;-82
2024/04/05 01:19:33;;;;;;;1.15;0.95;;;;;;;10.06;100.00;92984.22;2088841;28;20052;-82
2024/04/05 01:20:36;;;;;;;1.70;1.10;;;;;;;10.16;100.00;92987.06;2114405;28;20369;-82
2024/04/05 01:21:37;;;;;;;1.80;0.88;;;;;;;10.01;100.00;92987.38;2097463;28;20032;-83
2024/04/05 01:22:50;;;;;;;1.25;1.00;;;;;;;9.95;100.00;92989.03;2081458;28;20037;-81
2024/04/05 01:23:52;;;;;;;2.67;0.95;;;;;;;10.12;100.00;92986.41;2091345;28;20080;-82
2024/04/05 01:24:53;;;;;;;1.77;0.98;;;;;;;9.91;100.00;92979.59;2089368;28;20027;-82
2024/04/05 01:25:56;;;;;;;1.23;0.90;;;;;;;9.98;100.00;92982.13;2097640;28;20518;-83
2024/04/05 01:26:57;;;;;;;2.10;0.90;;;;;;;10.09;100.00;92987.97;2102481;28;20103;-82
2024/04/05 01:27:59;;;;;;;1.60;0.80;;;;;;;10.04;100.00;92985.78;2090295;28;20433;-82
2024/04/05 01:29:00;;;;;;;4.18;1.25;;;;;;;10.12;100.00;92991.72;2082888;28;20021;-83
2024/04/05 01:30:01;;;;;;;2.13;0.80;;;;;;;10.09;100.00;92987.97;2082038;28;20453;-82
2024/04/05 01:31:03;;;;;;;1.95;0.90;;;;;;;9.95;100.00;92983.69;2097738;28;20066;-82
2024/04/05 01:32:04;;;;;;;3.58;1.00;;;;;;;9.92;100.00;92983.75;2105691;28;20031;-82
2024/04/05 01:33:05;;;;;;;2.67;0.75;;;;;;;9.96;100.00;92987.84;2089296;28;20405;-83
2024/04/05 01:34:06;;;;;;;2.60;1.00;;;;;;;9.87;100.00;92985.00;2089276;28;20025;-82
2024/04/05 01:35:07;;;;;;;1.25;0.88;;;;;;;10.00;100.00;92987.78;2097800;28;20119;-83
2024/04/05 01:36:08;;;;;;;3.15;0.80;;;;;;;10.13;100.00;92990.56;2089388;28;20040;-83
2024/04/05 01:37:09;;;;;;;0.88;0.80;;;;;;;9.98;100.00;92979.44;2081447;28;20037;-82
2024/04/05 01:38:10;;;;;;;2.45;1.00;;;;;;;9.78;100.00;92988.22;2083178;28;20087;-83
2024/04/05 01:39:11;;;;;;;3.90;1.05;;;;;;;9.92;100.00;92979.19;2097660;28;20774;-82
2024/04/05 01:40:12;;;;;;;2.78;0.90;;;;;;;10.05;100.00;92988.06;2103984;28;20053;-82
2024/04/05 01:41:13;;;;;;;1.77;1.10;;;;;;;10.09;100.00;92983.38;2089368;28;20028;-82
2024/04/05 01:42:14;;;;;;;3.47;1.00;;;;;;;10.17;100.00;92991.22;2089574;28;20048;-82
2024/04/05 01:43:15;;;;;;;1.60;1.48;;;;;;;10.09;100.00;92988.72;2089313;28;20382;-83
2024/04/05 01:44:16;;;;;;;5.93;1.25;;;;;;;10.18;100.00;92990.06;2081348;28;20087;-81
2024/04/05 01:45:17;;;;;;;5.90;1.20;;;;;;;10.14;100.00;92990.16;2097707;28;20054;-81
2024/04/05 01:46:18;;;;;;;2.65;1.20;;;;;;;10.20;100.00;92985.81;2089391;28;20029;-82
2024/04/05 01:47:19;;;;;;;3.50;1.40;;;;;;;10.02;100.00;92977.47;2081233;28;20029;-81
2024/04/05 01:48:20;;;;;;;2.03;1.15;;;;;;;10.01;100.00;92979.38;2089481;28;20460;-83
2024/04/05 01:49:21;;;;;;;2.63;1.25;;;;;;;10.09;100.00;92978.03;2088519;28;20059;-82
2024/04/05 01:50:22;;;;;;;4.22;1.42;;;;;;;10.14;100.00;92973.38;2082902;28;20150;-82
2024/04/05 01:51:23;;;;;;;1.33;1.10;;;;;;;10.14;100.00;92974.13;2093112;28;20120;-83
2024/04/05 01:52:24;;;;;;;8.32;1.40;;;;;;;10.29;100.00;92970.00;2089469;28;20028;-82
2024/04/05 01:53:25;;;;;;;1.48;1.23;;;;;;;10.23;100.00;92971.63;2097590;28;20032;-83
2024/04/05 01:54:26;;;;;;;5.63;1.40;;;;;;;10.32;100.00;92971.84;2085222;28;20021;-83
2024/04/05 01:55:27;;;;;;;2.03;1.30;;;;;;;10.31;100.00;92975.66;2073132;28;20045;-82
2024/04/05 01:56:28;;;;;;;5.60;1.55;;;;;;;10.18;100.00;92964.09;2082486;28;20025;-82
2024/04/05 01:57:29;;;;;;;5.22;1.30;;;;;;;10.18;100.00;92968.69;2088219;28;20462;-84
2024/04/05 01:58:30;;;;;;;5.50;1.20;;;;;;;10.28;100.00;92968.50;2089322;28;20070;-82
2024/04/05 01:59:31;;;;;;;3.08;1.00;;;;;;;10.25;100.00;92966.66;2096858;28;20017;-83
2024/04/05 02:00:32;;;;;;;2.15;1.02;;;;;;;10.36;100.00;92968.31;2088450;28;20158;-83
2024/04/05 02:01:34;;;;;;;2.70;1.23;;;;;;;10.33;100.00;92970.66;2081760;28;20028;-83
2024/04/05 02:02:35;;;;;;;4.20;1.23;;;;;;;10.39;100.00;92964.81;2096477;28;20405;-82
2024/04/05 02:03:36;;;;;;;3.03;1.27;;;;;;;10.46;100.00;92960.06;2097020;28;20025;-83
2024/04/05 02:04:37;;;;;;;3.13;1.40;;;;;;;10.42;100.00;92967.41;2097673;28;20071;-83
2024/04/05 02:05:38;;;;;;;4.38;1.50;;;;;;;10.27;100.00;92964.31;2097603;28;20032;-82
2024/04/05 02:06:39;;;;;;;6.20;1.30;;;;;;;10.40;100.00;92961.72;2097396;28;20060;-83
2024/04/05 02:07:40;;;;;;;1.38;1.20;;;;;;;10.20;100.00;92961.03;2095608;28;20052;-83
2024/04/05 02:08:41;;;;;;;2.60;1.05;;;;;;;10.14;100.00;92957.34;2091296;28;20059;-82
2024/04/05 02:09:45;;;;;;;3.33;1.17;;;;;;;10.33;100.00;92959.97;2089350;28;20031;-82
2024/04/05 02:10:46;;;;;;;3.78;1.30;;;;;;;10.48;100.00;92957.72;2090129;28;21212;-83
2024/04/05 02:11:47;;;;;;;1.45;1.00;;;;;;;10.64;100.00;92958.88;2097386;28;20466;-84
2024/04/05 02:12:48;;;;;;;2.63;1.00;;;;;;;10.63;100.00;92962.72;2089154;28;20168;-82
2024/04/05 02:13:49;;;;;;;3.55;1.40;;;;;;;10.57;100.00;92957.88;2081134;28;20080;-82
2024/04/05 02:14:50;;;;;;;4.68;1.10;;;;;;;10.49;100.00;92959.22;2080947;28;20108;-82
2024/04/05 02:15:51;;;;;;;2.17;1.10;;;;;;;10.36;100.00;92962.97;2081088;28;20024;-83
2024/04/05 02:16:55;;;;;;;2.10;1.10;;;;;;;10.42;100.00;92964.00;2081012;28;20048;-83
2024/04/05 02:17:55;;;;;;;2.13;1.00;;;;;;;10.38;100.00;92969.41;2081264;28;20128;-82
2024/04/05 02:18:56;;;;;;;3.10;1.05;;;;;;;10.46;100.00;92957.38;2085128;28;20032;-82
2024/04/05 02:19:57;;;;;;;1.10;1.00;;;;;;;10.42;100.00;92964.75;2096555;28;20217;-84
2024/04/05 02:20:59;;;;;;;3.38;1.05;;;;;;;10.34;100.00;92961.47;2088945;28;20065;-82
2024/04/05 02:22:00;;;;;;;3.05;1.05;;;;;;;10.45;100.00;92963.16;2085981;28;20040;-83
2024/04/05 02:23:02;;;;;;;3.05;1.00;;;;;;;10.46;100.00;92959.31;2097232;28;20052;-83
2024/04/05 02:24:03;;;;;;;2.60;1.25;;;;;;;10.36;100.00;92963.75;2095876;28;20696;-82
2024/04/05 02:25:05;;;;;;;1.75;1.38;;;;;;;10.37;100.00;92957.22;2089076;28;20028;-83
2024/04/05 02:27:37;;;;;;;;;;;;;;;8.83;100.00;92965.69;2145093;27;20129;-83
2024/04/05 02:28:38;;;;;;;2.22;1.25;;;;;;;8.90;100.00;92969.38;2125041;27;19920;-81
2024/04/05 02:29:39;;;;;;;2.20;1.23;;;;;;;8.92;100.00;92965.13;2111337;28;20392;-83
2024/04/05 02:30:40;;;;;;;3.13;1.10;;;;;;;8.96;100.00;92957.84;2106229;28;20115;-82
2024/04/05 02:31:41;;;;;;;1.90;1.10;;;;;;;8.91;100.00;92962.88;2104349;27;20087;-83
2024/04/05 02:32:42;;;;;;;3.28;1.25;;;;;;;8.92;100.00;92962.47;2105091;28;20016;-83
2024/04/05 02:33:49;;;;;;;2.13;1.30;;;;;;;8.82;100.00;92960.72;2113752;28;20024;-83
2024/04/05 02:34:50;;;;;;;3.45;1.10;;;;;;;8.77;100.00;92961.22;2109582;27;20116;-82
2024/04/05 02:35:59;;;;;;;6.18;1.30;;;;;;;8.86;100.00;92964.09;2121040;28;20457;-81
2024/04/05 02:37:00;;;;;;;3.25;1.30;;;;;;;8.89;100.00;92960.63;2115230;27;20085;-83
2024/04/05 02:38:01;;;;;;;1.98;1.20;;;;;;;8.83;100.00;92959.59;2116349;28;20024;-84
2024/04/05 02:39:07;;;;;;;9.02;1.50;;;;;;;8.92;100.00;92959.06;2114805;27;20031;-83
2024/04/05 02:40:08;;;;;;;5.88;1.60;;;;;;;8.92;100.00;92954.47;2121361;28;20023;-83
2024/04/05 02:41:10;;;;;;;2.53;1.08;;;;;;;8.96;100.00;92952.50;2118993;28;20099;-84
2024/04/05 02:42:11;;;;;;;3.72;1.50;;;;;;;8.97;100.00;92955.91;2098204;28;20505;-84
2024/04/05 02:43:12;;;;;;;5.13;1.20;;;;;;;8.97;100.00;92947.91;2110791;28;20024;-84
2024/04/05 02:44:14;;;;;;;8.48;1.40;;;;;;;9.01;100.00;92957.34;2123085;27;20514;-83
2024/04/05 02:45:15;;;;;;;3.15;1.00;;;;;;;9.05;100.00;92954.63;2128307;27;20117;-82
2024/04/05 02:46:16;;;;;;;6.97;1.65;;;;;;;9.07;100.00;92947.72;2122754;27;20032;-83
2024/04/05 02:47:17;;;;;;;1.98;1.00;;;;;;;9.12;100.00;92953.72;2103022;28;20037;-82
2024/04/05 02:48:17;;;;;;;2.25;1.13;;;;;;;9.10;100.00;92948.06;2112897;28;20055;-82
2024/04/05 02:49:18;;;;;;;5.78;1.30;;;;;;;9.03;100.00;92949.69;2108830;28;20441;-83
2024/04/05 02:50:19;;;;;;;6.18;1.30;;;;;;;9.03;100.00;92952.34;2099376;28;20020;-82
2024/04/05 02:51:21;;;;;;;3.10;1.25;;;;;;;9.04;100.00;92959.22;2022703;28;20028;-82
2024/04/05 02:52:22;;;;;;;3.13;1.10;;;;;;;9.05;100.00;92957.28;2008111;28;20029;-81
2024/04/05 02:53:24;;;;;;;2.75;1.00;;;;;;;8.98;100.00;92958.16;2023426;28;20059;-82
2024/04/05 02:54:26;;;;;;;2.25;1.00;;;;;;;8.99;100.00;92958.91;2027131;28;22266;-83
2024/04/05 02:55:27;;;;;;;1.77;1.15;;;;;;;8.91;100.00;92968.97;2029253;28;23809;-81
2024/04/05 02:56:28;;;;;;;3.33;1.20;;;;;;;8.88;100.00;92969.78;2027285;28;20151;-81
2024/04/05 02:57:29;;;;;;;3.17;1.27;;;;;;;8.86;100.00;92964.09;2046979;27;20028;-83
2024/04/05 02:58:30;;;;;;;2.30;1.05;;;;;;;8.94;100.00;92970.06;2045318;28;20090;-82
2024/04/05 02:59:31;;;;;;;3.72;1.60;;;;;;;8.88;100.00;92961.03;2042598;28;20191;-81
2024/04/05 03:00:36;;;;;;;7.72;1.40;;;;;;;8.83;100.00;92963.00;2043303;28;20029;-83
2024/04/05 03:01:37;;;;;;;2.42;1.20;;;;;;;8.93;100.00;92971.97;2055501;28;20031;-82
2024/04/05 03:02:38;;;;;;;2.25;1.13;;;;;;;8.95;100.00;92964.31;2073619;27;20050;-81
2024/04/05 03:03:39;;;;;;;8.93;1.52;;;;;;;8.94;100.00;92957.47;2065802;28;20119;-82
2024/04/05 03:04:40;;;;;;;4.85;1.23;;;;;;;8.89;100.00;92965.94;2062875;28;20025;-82
2024/04/05 03:05:41;;;;;;;2.90;1.33;;;;;;;8.92;100.00;92969.72;2080014;27;20036;-81
2024/04/05 03:06:42;;;;;;;5.40;1.10;;;;;;;8.81;100.00;92964.56;2081867;28;20421;-82
2024/04/05 03:07:43;;;;;;;5.03;1.40;;;;;;;8.78;100.00;92965.38;2072062;28;20032;-82
2024/04/05 03:08:44;;;;;;;9.00;2.42;;;;;;;8.80;100.00;92957.75;2079624;28;23744;-82
2024/04/05 03:09:45;;;;;;;3.38;2.40;;;;;;;8.78;100.00;92966.16;2088353;28;20055;-82
2024/04/05 03:10:54;;;;;;;4.93;1.83;;;;;;;8.84;100.00;92958.44;2088034;28;20388;-82
2024/04/05 03:11:55;;;;;;;6.63;1.33;;;;;;;8.76;100.00;92962.38;2101288;28;20035;-82
2024/04/05 03:12:56;;;;;;;3.35;1.20;;;;;;;8.85;100.00;92962.59;2106835;28;20118;-82
2024/04/05 03:13:57;;;;;;;1.58;0.93;;;;;;;8.85;100.00;92959.19;2112684;28;20469;-82
2024/04/05 03:14:58;;;;;;;4.55;1.38;;;;;;;8.78;100.00;92955.50;2118178;27;20055;-82
2024/04/05 03:16:01;;;;;;;4.05;1.50;;;;;;;8.79;100.00;92948.25;2121121;27;20887;-83
2024/04/05 03:17:02;;;;;;;3.83;1.35;;;;;;;8.74;100.00;92954.78;2121439;27;20016;-82
2024/04/05 03:18:03;;;;;;;2.88;0.98;;;;;;;8.69;100.00;92955.28;2112482;28;20032;-82
2024/04/05 03:19:04;;;;;;;3.13;1.35;;;;;;;8.70;100.00;92940.78;2121367;27;20049;-81
2024/04/05 03:20:06;;;;;;;5.13;1.42;;;;;;;8.68;100.00;92945.75;2121004;28;20117;-82
2024/04/05 03:22:11;;;;;;;3.30;1.30;;;;;;;8.60;100.00;92947.03;2108567;28;20513;-84
2024/04/05 03:24:16;;;;;;;5.70;1.30;;;;;;;8.67;100.00;92943.50;2109375;28;20527;-82
2024/04/05 03:25:17;;;;;;;5.60;1.30;;;;;;;8.65;100.00;92932.47;2107287;28;20063;-82
2024/04/05 03:26:18;;;;;;;3.95;1.20;;;;;;;8.60;100.00;92928.38;2097526;28;20561;-82
2024/04/05 03:27:20;;;;;;;1.40;1.30;;;;;;;8.60;100.00;92928.38;2107785;28;20083;-83
2024/04/05 03:28:21;;;;;;;4.53;1.20;;;;;;;8.49;100.00;92925.91;2055121;28;20307;-82
2024/04/05 03:29:22;;;;;;;4.78;1.17;;;;;;;8.51;100.00;92925.50;2011303;28;20129;-81
2024/04/05 03:30:23;;;;;;;5.03;1.20;;;;;;;8.60;100.00;92932.97;2022356;28;20548;-82
2024/04/05 03:31:25;;;;;;;4.20;1.17;;;;;;;8.48;100.00;92927.06;2018477;28;21803;-80
2024/04/05 03:32:25;;;;;;;2.75;1.20;;;;;;;8.43;100.00;92932.88;2025344;28;20074;-82
2024/04/05 03:33:27;;;;;;;2.55;1.20;;;;;;;8.40;100.00;92931.00;2038089;27;20944;-82
2024/04/05 03:34:28;;;;;;;6.18;2.20;;;;;;;8.44;100.00;92931.72;2049844;27;20462;-82
2024/04/05 03:35:29;;;;;;;3.33;1.45;;;;;;;8.40;100.00;92932.94;2051360;27;20039;-83
2024/04/05 03:36:30;;;;;;;4.15;1.33;;;;;;;8.41;100.00;92937.84;2045464;28;20488;-81
2024/04/05 03:37:31;;;;;;;3.10;1.30;;;;;;;8.51;100.00;92934.22;2039072;28;20022;-85
2024/04/05 03:38:32;;;;;;;5.70;1.27;;;;;;;8.56;100.00;92925.06;2055148;28;20098;-82
2024/04/05 03:39:33;;;;;;;3.28;1.20;;;;;;;8.48;100.00;92934.31;2055891;28;20217;-82
2024/04/05 03:40:38;;;;;;;1.60;1.10;;;;;;;8.42;100.00;92939.34;2054714;28;21008;-82
2024/04/05 03:41:39;;;;;;;3.05;1.20;;;;;;;8.60;100.00;92936.38;2077750;28;20112;-83
2024/04/05 03:42:41;;;;;;;2.30;1.17;;;;;;;8.57;100.00;92943.28;2087050;28;20033;-82
2024/04/05 03:43:41;;;;;;;4.57;1.20;;;;;;;8.53;100.00;92937.25;2106394;28;20016;-83
2024/04/05 03:44:42;;;;;;;5.38;1.10;;;;;;;8.45;100.00;92945.78;2092649;28;20097;-84
2024/04/05 03:45:43;;;;;;;2.35;1.10;;;;;;;8.43;100.00;92940.88;2112409;28;20514;-82
2024/04/05 03:46:45;;;;;;;3.17;1.17;;;;;;;8.33;100.00;92945.16;2115067;28;20332;-85
2024/04/05 03:47:46;;;;;;;2.00;1.17;;;;;;;8.23;100.00;92940.00;2115469;27;20464;-84
2024/04/05 03:48:47;;;;;;;4.40;1.42;;;;;;;8.07;100.00;92949.34;2115089;28;20020;-83
2024/04/05 03:49:48;;;;;;;0.93;0.90;;;;;;;8.07;100.00;92946.69;2105879;28;20096;-82
2024/04/05 03:50:50;;;;;;;3.63;1.20;;;;;;;8.07;100.00;92949.34;2106920;28;20024;-82
2024/04/05 03:51:50;;;;;;;3.05;1.02;;;;;;;8.00;100.00;92952.13;2106844;28;20039;-84
2024/04/05 03:52:51;;;;;;;4.50;1.20;;;;;;;8.01;100.00;92943.00;2102878;28;20028;-82
2024/04/05 03:53:52;;;;;;;4.13;1.20;;;;;;;7.96;100.00;92948.03;2090155;28;20459;-83
2024/04/05 03:54:53;;;;;;;2.05;1.40;;;;;;;7.92;100.00;92947.31;2090148;28;20118;-83
2024/04/05 03:55:54;;;;;;;2.33;1.20;;;;;;;7.92;100.00;92952.66;2098386;28;20020;-84
2024/04/05 03:56:56;;;;;;;7.05;2.75;;;;;;;7.80;100.00;92946.72;2090084;28;20025;-83
2024/04/05 03:57:57;;;;;;;1.90;1.02;;;;;;;7.78;100.00;92948.28;2090608;28;20142;-82
2024/04/05 03:58:58;;;;;;;3.10;1.10;;;;;;;7.74;100.00;92948.31;2089511;28;20029;-82
2024/04/05 03:59:59;;;;;;;3.45;1.02;;;;;;;7.61;100.00;92949.28;2098444;28;20020;-83
2024/04/05 04:01:00;;;;;;;1.05;0.90;;;;;;;7.73;100.00;92949.50;2101445;28;20580;-83
2024/04/05 04:02:01;;;;;;;3.88;1.23;;;;;;;7.67;100.00;92937.78;2101213;28;20105;-82
2024/04/05 04:03:02;;;;;;;3.00;1.38;;;;;;;7.73;100.00;92946.06;2112048;28;20023;-82
2024/04/05 04:04:03;;;;;;;2.25;1.08;;;;;;;7.71;100.00;92946.47;2101724;28;20334;-83
2024/04/05 04:05:04;;;;;;;1.40;0.98;;;;;;;7.60;100.00;92939.78;2089973;28;20033;-84
2024/04/05 04:06:05;;;;;;;1.50;1.05;;;;;;;7.67;100.00;92945.75;2083883;28;20116;-82
2024/04/05 04:07:06;;;;;;;3.58;1.17;;;;;;;7.63;100.00;92939.72;2094120;28;20079;-84
2024/04/05 04:08:07;;;;;;;3.95;1.00;;;;;;;7.65;100.00;92937.44;2088797;28;20525;-83
2024/04/05 04:09:09;;;;;;;1.92;1.08;;;;;;;7.71;100.00;92935.06;2100361;28;20029;-83
2024/04/05 04:10:11;;;;;;;2.13;1.10;;;;;;;7.76;100.00;92929.28;2100641;28;20024;-82
2024/04/05 04:11:12;;;;;;;3.97;1.30;;;;;;;7.67;100.00;92924.47;2101594;28;20158;-82
2024/04/05 04:12:13;;;;;;;3.95;1.13;;;;;;;7.81;100.00;92928.84;2113285;28;20027;-83
2024/04/05 04:13:15;;;;;;;3.00;1.60;;;;;;;7.78;100.00;92924.34;2112564;28;20181;-83
2024/04/05 04:14:16;;;;;;;3.75;1.30;;;;;;;7.83;100.00;92924.63;2097675;28;20024;-84
2024/04/05 04:15:17;;;;;;;2.58;1.02;;;;;;;7.83;100.00;92926.53;2089376;28;20024;-85
2024/04/05 04:16:18;;;;;;;4.47;1.17;;;;;;;7.76;100.00;92934.63;2081952;28;20022;-85
2024/04/05 04:17:19;;;;;;;1.65;1.20;;;;;;;7.69;100.00;92934.72;2089245;28;20025;-85
2024/04/05 04:18:21;;;;;;;5.00;1.10;;;;;;;7.73;100.00;92930.88;2098273;28;20028;-82
2024/04/05 04:19:22;;;;;;;2.92;1.08;;;;;;;7.58;100.00;92924.97;2089848;28;20112;-82
2024/04/05 04:20:23;;;;;;;3.72;1.23;;;;;;;7.45;100.00;92939.97;2081730;28;20025;-83
2024/04/05 04:21:25;;;;;;;2.10;1.63;;;;;;;7.50;100.00;92936.84;2090077;28;20571;-83
2024/04/05 04:22:26;;;;;;;2.10;1.73;;;;;;;7.58;100.00;92932.94;2089985;28;20056;-82
2024/04/05 04:23:29;;;;;;;5.93;2.83;;;;;;;7.48;100.00;92928.53;2089779;28;20370;-81
2024/04/05 04:24:30;;;;;;;4.82;2.90;;;;;;;7.41;100.00;92927.88;2098059;28;20165;-83
2024/04/05 04:25:31;;;;;;;3.97;2.60;;;;;;;7.48;100.00;92936.50;2106505;28;20431;-82
2024/04/05 04:26:32;;;;;;;3.58;2.47;;;;;;;7.48;100.00;92933.84;2097812;28;20020;-82
2024/04/05 04:27:33;;;;;;;3.67;3.13;;;;;;;7.54;100.00;92929.59;2089656;28;20427;-82
2024/04/05 04:28:34;;;;;;;4.28;1.60;;;;;;;7.54;100.00;92940.22;2099045;28;20039;-82
2024/04/05 04:29:34;;;;;;;4.53;1.67;;;;;;;7.44;100.00;92930.47;2106073;28;20032;-82
2024/04/05 04:30:35;;;;;;;6.93;1.98;;;;;;;7.39;100.00;92938.91;2089743;28;20096;-83
2024/04/05 04:31:37;;;;;;;2.55;1.35;;;;;;;7.35;100.00;92938.19;2108279;28;20036;-83
2024/04/05 04:32:38;;;;;;;1.40;1.27;;;;;;;7.36;100.00;92941.59;2091667;28;20481;-82
2024/04/05 04:33:39;;;;;;;4.90;1.40;;;;;;;7.43;100.00;92942.28;2089764;28;20037;-82
2024/04/05 04:34:40;;;;;;;2.05;1.20;;;;;;;7.42;100.00;92946.09;2089606;28;20013;-83
2024/04/05 04:35:45;;;;;;;5.53;0.98;;;;;;;7.32;100.00;92947.72;2091903;28;20037;-82
2024/04/05 04:36:50;;;;;;;3.92;1.20;;;;;;;7.30;100.00;92946.63;2096277;28;20031;-83
2024/04/05 04:37:52;;;;;;;2.60;1.20;;;;;;;7.29;100.00;92943.22;2103823;28;20024;-81
2024/04/05 04:38:53;;;;;;;3.35;1.38;;;;;;;7.35;100.00;92940.09;2097976;28;20119;-82
2024/04/05 04:39:55;;;;;;;5.13;1.50;;;;;;;7.25;100.00;92939.09;2095840;28;20016;-85
2024/04/05 04:40:56;;;;;;;6.28;1.38;;;;;;;7.34;100.00;92939.34;2088406;28;20033;-84
2024/04/05 04:41:57;;;;;;;2.95;1.38;;;;;;;7.32;100.00;92931.75;2090388;28;20115;-84
2024/04/05 04:43:01;;;;;;;2.40;1.25;;;;;;;7.26;100.00;92935.28;2102624;28;20020;-84
2024/04/05 04:44:03;;;;;;;3.38;1.40;;;;;;;7.13;100.00;92929.72;2101680;28;20032;-83
2024/04/05 04:45:05;;;;;;;5.22;1.77;;;;;;;7.16;100.00;92936.16;2098720;28;20025;-82
2024/04/05 04:46:07;;;;;;;4.05;1.80;;;;;;;7.26;100.00;92935.28;2098500;28;20381;-82
2024/04/05 04:47:09;;;;;;;5.95;1.45;;;;;;;7.08;100.00;92935.50;2097292;28;20052;-82
2024/04/05 04:48:10;;;;;;;4.45;1.50;;;;;;;7.15;100.00;92932.72;2094369;28;20076;-85
2024/04/05 04:49:12;;;;;;;4.03;2.10;;;;;;;7.13;100.00;92939.59;2096256;28;20546;-85
2024/04/05 04:50:13;;;;;;;3.08;1.88;;;;;;;7.21;100.00;92931.16;2097780;28;20501;-82
2024/04/05 04:51:16;;;;;;;4.13;1.77;;;;;;;7.15;100.00;92939.94;2090782;28;20386;-83